WetterOnline ( https://www.wetteronline.de )

Wetter aktuell Grambin

Aktuelles Wetter: Ueckermünde (7m)

6-stündlich | Neueste Meldungen
Ortszeit Temperatur Wetter
Do, 17.10. 14:00 15.7° C bewölkt
Do, 17.10. 8:00 11.3° C leichter Regen
Do, 17.10. 2:00 9.5° C wolkenlos
Mi, 16.10. 20:00 12.5° C Sprühregen
Mi, 16.10. 14:00 13.4° C leichter Regen
Mi, 16.10. 8:00 9.6° C Nebel
Mi, 16.10. 2:00 9.4° C Nebel
Di, 15.10. 20:00 14.2° C wolkig
Ortszeit Temperatur Wetter
Do, 17.10. 19:00 14.9° C bewölkt
Do, 17.10. 18:50 14.9° C bewölkt
Do, 17.10. 18:40 14.9° C bedeckt
Do, 17.10. 18:30 15.1° C bedeckt
Do, 17.10. 18:20 15.1° C bedeckt
Do, 17.10. 18:10 15.2° C bedeckt
Do, 17.10. 18:00 15.4° C bedeckt
Do, 17.10. 17:30 15.8° C bedeckt
Do, 17.10. 17:00 16.0° C bedeckt
Do, 17.10. 16:30 16.2° C bedeckt
Do, 17.10. 16:00 16.2° C bedeckt
Ortszeit Relative Feuchte Sichtweite
Do, 17.10. 14:00 77% 45 km
Do, 17.10. 8:00 96% 17 km
Do, 17.10. 2:00 98% 7 km
Mi, 16.10. 20:00 95% 17 km
Mi, 16.10. 14:00 98% 10 km
Mi, 16.10. 8:00 100% 0.6 km
Mi, 16.10. 2:00 100% <100 m
Di, 15.10. 20:00 96% 8 km
Ortszeit Relative Feuchte Sichtweite
Do, 17.10. 19:00 84% 40 km
Do, 17.10. 18:50 84% -
Do, 17.10. 18:40 85% -
Do, 17.10. 18:30 83% 50 km
Do, 17.10. 18:20 83% -
Do, 17.10. 18:10 83% -
Do, 17.10. 18:00 82% 45 km
Do, 17.10. 17:30 81% 50 km
Do, 17.10. 17:00 80% 65 km
Do, 17.10. 16:30 79% 60 km
Do, 17.10. 16:00 79% 45 km
Ortszeit Niederschlagsmenge Niederschlagsart
Do, 17.10. 14:00 0.2 l/m2 in 6 Std. Regen
Do, 17.10. 8:00 0.1 l/m2 in 12 Std. Regen
Do, 17.10. 2:00 0.1 l/m2 in 6 Std. Sprühregen
Mi, 16.10. 20:00 12 l/m2 in 12 Std. Regen
Mi, 16.10. 14:00 3 l/m2 in 6 Std. Regen
Mi, 16.10. 8:00 0.0 l/m2 in 12 Std. -
Mi, 16.10. 2:00 0.0 l/m2 in 6 Std. -
Di, 15.10. 20:00 0.0 l/m2 in 12 Std. -
Ortszeit Niederschlagsmenge Niederschlagsart
Do, 17.10. 19:00 0.0 l/m2 in 1 Std. -
Do, 17.10. 18:50 keine Meldung -
Do, 17.10. 18:40 keine Meldung -
Do, 17.10. 18:30 0.0 l/m2 in 1 Std. -
Do, 17.10. 18:20 keine Meldung -
Do, 17.10. 18:10 keine Meldung -
Do, 17.10. 18:00 0.0 l/m2 in 1 Std. -
Do, 17.10. 17:30 0.0 l/m2 in 1 Std. -
Do, 17.10. 17:00 0.1 l/m2 in 1 Std. Regen
Do, 17.10. 16:30 0.1 l/m2 in 1 Std. Schneeregen
Do, 17.10. 16:00 0.0 l/m2 in 1 Std. -
Ortszeit Stärke Spitze Richtung
km/h Bft. km/h Grad Sektor
Do, 17.10. 14:00 14 3 32 210° SW
Do, 17.10. 8:00 11 2 20 180° S
Do, 17.10. 2:00 11 2 32 200° S
Mi, 16.10. 20:00 22 4 40 250° W
Mi, 16.10. 14:00 15 3 26 230° SW
Mi, 16.10. 8:00 4 1 11 230° SW
Mi, 16.10. 2:00 0 0 11 - -
Di, 15.10. 20:00 7 2 22 120° SO
Ortszeit Stärke Spitze Richtung
km/h Bft. km/h Grad Sektor
Do, 17.10. 19:00 9 2 17 190° S
Do, 17.10. 18:50 9 2 - 190° S
Do, 17.10. 18:40 11 2 - 190° S
Do, 17.10. 18:30 11 2 18 190° S
Do, 17.10. 18:20 11 2 - 190° S
Do, 17.10. 18:10 11 2 - 200° S
Do, 17.10. 18:00 11 2 17 200° S
Do, 17.10. 17:30 11 2 18 210° SW
Do, 17.10. 17:00 7 2 18 220° SW
Do, 17.10. 16:30 9 2 17 220° SW
Do, 17.10. 16:00 11 2 25 220° SW
Ortszeit Untergrenze Bedeckung Gattung
total tief tief mittel hoch
Do, 17.10. 14:00 930 m 7/8 7/8 - - -
Do, 17.10. 8:00 690 m 8/8 8/8 - - -
Do, 17.10. 2:00 - 0/8 0/8 - - -
Mi, 16.10. 20:00 270 m 7/8 7/8 - - -
Mi, 16.10. 14:00 120 m 7/8 7/8 - - -
Mi, 16.10. 8:00 30 m 7/8 7/8 - - -
Mi, 16.10. 2:00 <30 m 6/8 0/8 - - -
Di, 15.10. 20:00 9000 m 8/8 0/8 - - -
Ortszeit Bedeckungsgrad in Achtel und Wolkenuntergrenze
Do, 17.10. 19:00 7(1380m)
Do, 17.10. 18:50 7(1380m)
Do, 17.10. 18:40 8(1350m)
Do, 17.10. 18:30 8(1320m) 8(1800m)
Do, 17.10. 18:20 8(1320m)
Do, 17.10. 18:10 8(1320m)
Do, 17.10. 18:00 1(660m) 8(1260m)
Do, 17.10. 17:30 6(690m) 8(1050m) 8(1380m)
Do, 17.10. 17:00 2(750m) 7(1050m) 8(2100m)
Do, 17.10. 16:30 8(930m)
Do, 17.10. 16:00 1(660m) 8(960m)
Ortszeit Luftdruck NN (hPa) Tendenz (hPa in 3 Std.)
Do, 17.10. 14:00 1012 0,0
Do, 17.10. 8:00 1011 - 0,2
Do, 17.10. 2:00 1011 + 0,9
Mi, 16.10. 20:00 1009 + 2,1
Mi, 16.10. 14:00 1006 + 1,1
Mi, 16.10. 8:00 1004 - 0,3
Mi, 16.10. 2:00 1005 - 1,3
Di, 15.10. 20:00 1006 + 0,2
Ortszeit Luftdruck NN (hPa) Tendenz (hPa in 3 Std.)
Do, 17.10. 19:00 1013 + 0,6
Do, 17.10. 18:50 1013 keine Meldung
Do, 17.10. 18:40 1013 keine Meldung
Do, 17.10. 18:30 1013 + 0,8
Do, 17.10. 18:20 1013 keine Meldung
Do, 17.10. 18:10 1013 keine Meldung
Do, 17.10. 18:00 1013 + 0,9
Do, 17.10. 17:30 1012 + 0,9
Do, 17.10. 17:00 1012 + 0,6
Do, 17.10. 16:30 1012 + 0,6
Do, 17.10. 16:00 1012 + 0,5
Ortszeit Schneehöhe (cm)
Do, 17.10. 14:00 0
Do, 17.10. 8:00 0
Do, 17.10. 2:00 0
Mi, 16.10. 20:00 0
Mi, 16.10. 14:00 0
Mi, 16.10. 8:00 0
Mi, 16.10. 2:00 0
Di, 15.10. 20:00 0
Ortszeit Schneehöhe (cm)
Do, 17.10. 19:00 0
Do, 17.10. 18:50 0
Do, 17.10. 18:40 0
Do, 17.10. 18:30 0
Do, 17.10. 18:20 0
Do, 17.10. 18:10 0
Do, 17.10. 18:00 0
Do, 17.10. 17:30 0
Do, 17.10. 17:00 0
Do, 17.10. 16:30 0
Do, 17.10. 16:00 0
Link zu dieser Seite / Seite empfehlen

Das Wetter in ...